Time;durP1;ratioP1;P1;durP2;ratioP2;P2;SDS_P1;SDS_P2;PMS_P1;PMS_P2;Temp;Humidity;BMP_temperature;BMP_pressure;BME280_temperature;BME280_humidity;BME280_pressure;Samples;Min_cycle;Max_cycle;Signal;HPM_P1;HPM_P2
2023/02/22 00:00:22;;;;;;;1.38;0.77;;;;;;;;;;4993700;28;20054;-65
2023/02/22 00:02:50;;;;;;;0.60;0.60;;;;;;;;;;4993644;28;20508;-64
2023/02/22 00:05:19;;;;;;;0.85;0.75;;;;;;;;;;4992493;28;20058;-65
2023/02/22 00:07:48;;;;;;;0.60;0.60;;;;;;;;;;4992023;28;20046;-65
2023/02/22 00:10:19;;;;;;;1.30;0.98;;;;;;;;;;4989640;28;20367;-64
2023/02/22 00:12:48;;;;;;;0.60;0.60;;;;;;;;;;4983813;28;20109;-65
2023/02/22 00:15:18;;;;;;;3.20;0.98;;;;;;;;;;4993335;28;20093;-65
2023/02/22 00:17:46;;;;;;;1.85;0.60;;;;;;;;;;4992993;28;20046;-64
2023/02/22 00:20:18;;;;;;;1.95;1.15;;;;;;;;;;4992715;28;20049;-65
2023/02/22 00:22:47;;;;;;;1.33;0.80;;;;;;;;;;4992113;28;20053;-65
2023/02/22 00:25:17;;;;;;;1.48;0.85;;;;;;;;;;4993101;28;20050;-64
2023/02/22 00:27:46;;;;;;;3.80;1.35;;;;;;;;;;4992898;28;20062;-65
2023/02/22 00:30:17;;;;;;;1.50;0.95;;;;;;;;;;4980591;28;20513;-64
2023/02/22 00:32:47;;;;;;;2.72;0.85;;;;;;;;;;4993035;28;20054;-65
2023/02/22 00:35:16;;;;;;;0.88;0.88;;;;;;;;;;4992477;28;20052;-65
2023/02/22 00:37:47;;;;;;;6.63;2.28;;;;;;;;;;4992331;28;20050;-64
2023/02/22 00:40:17;;;;;;;1.38;1.08;;;;;;;;;;4992800;28;20050;-64
2023/02/22 00:42:46;;;;;;;3.85;1.20;;;;;;;;;;4993104;28;20065;-64
2023/02/22 00:45:14;;;;;;;1.55;1.45;;;;;;;;;;4993031;28;20050;-64
2023/02/22 00:47:43;;;;;;;1.88;1.02;;;;;;;;;;4992330;28;20069;-64
2023/02/22 00:50:13;;;;;;;2.63;1.50;;;;;;;;;;4992646;28;20502;-64
2023/02/22 00:52:41;;;;;;;1.77;1.15;;;;;;;;;;4991888;28;20054;-64
2023/02/22 00:55:11;;;;;;;16.85;1.17;;;;;;;;;;4992909;28;20054;-64
2023/02/22 00:57:39;;;;;;;2.20;1.05;;;;;;;;;;4991941;28;20415;-64
2023/02/22 01:00:11;;;;;;;6.72;1.88;;;;;;;;;;4992699;28;20065;-65
2023/02/22 01:02:40;;;;;;;1.27;0.85;;;;;;;;;;4992183;28;20062;-64
2023/02/22 01:05:09;;;;;;;2.13;1.13;;;;;;;;;;4991569;28;20476;-66
2023/02/22 01:07:38;;;;;;;2.15;1.20;;;;;;;;;;4991746;28;20046;-65
2023/02/22 01:10:08;;;;;;;0.80;0.80;;;;;;;;;;4990075;28;20051;-64
2023/02/22 01:12:37;;;;;;;1.75;1.05;;;;;;;;;;4981126;28;20510;-64
2023/02/22 01:15:09;;;;;;;3.30;1.52;;;;;;;;;;4992287;28;20042;-65
2023/02/22 01:17:37;;;;;;;1.08;0.98;;;;;;;;;;4991838;28;20054;-64
2023/02/22 01:20:11;;;;;;;2.42;1.23;;;;;;;;;;4992048;28;20050;-64
2023/02/22 01:22:41;;;;;;;1.35;1.10;;;;;;;;;;4991724;28;20054;-64
2023/02/22 01:25:09;;;;;;;1.65;0.95;;;;;;;;;;4992038;28;20042;-65
2023/02/22 01:27:38;;;;;;;1.20;0.93;;;;;;;;;;4991854;28;20053;-66
2023/02/22 01:30:08;;;;;;;0.77;0.60;;;;;;;;;;4991917;28;20046;-65
2023/02/22 01:32:37;;;;;;;2.03;0.82;;;;;;;;;;4992458;28;20050;-64
2023/02/22 01:35:07;;;;;;;2.08;0.85;;;;;;;;;;4979324;28;20050;-65
2023/02/22 01:37:35;;;;;;;2.97;1.45;;;;;;;;;;4986046;28;20046;-64
2023/02/22 01:40:06;;;;;;;0.88;0.85;;;;;;;;;;4991890;28;20065;-65
2023/02/22 01:42:35;;;;;;;1.15;1.05;;;;;;;;;;4991869;28;20057;-64
2023/02/22 01:45:22;;;;;;;1.35;0.82;;;;;;;;;;4991992;28;20077;-65
2023/02/22 01:47:50;;;;;;;1.80;1.70;;;;;;;;;;4991371;28;20050;-64
2023/02/22 01:50:19;;;;;;;2.85;1.40;;;;;;;;;;4991939;28;20500;-65
2023/02/22 01:52:47;;;;;;;1.10;0.88;;;;;;;;;;4991362;28;20056;-65
2023/02/22 01:55:18;;;;;;;2.67;1.42;;;;;;;;;;4991829;28;20062;-64
2023/02/22 01:57:46;;;;;;;3.28;1.00;;;;;;;;;;4991205;28;20117;-64
2023/02/22 02:00:19;;;;;;;1.30;1.20;;;;;;;;;;4991959;28;20046;-67
2023/02/22 02:02:50;;;;;;;1.30;1.00;;;;;;;;;;4991529;28;20058;-65
2023/02/22 02:05:18;;;;;;;1.42;1.13;;;;;;;;;;4990654;28;20055;-65
2023/02/22 02:07:48;;;;;;;1.25;0.70;;;;;;;;;;4991321;28;20057;-65
2023/02/22 02:10:17;;;;;;;1.17;0.95;;;;;;;;;;4988078;28;20620;-65
2023/02/22 02:12:48;;;;;;;1.45;1.17;;;;;;;;;;4981763;28;20043;-64
2023/02/22 02:15:20;;;;;;;1.95;1.70;;;;;;;;;;4990533;28;20046;-64
2023/02/22 02:17:49;;;;;;;0.90;0.82;;;;;;;;;;4991101;28;20046;-64
2023/02/22 02:20:20;;;;;;;1.85;1.08;;;;;;;;;;4991647;28;20054;-64
2023/02/22 02:22:50;;;;;;;1.23;1.13;;;;;;;;;;4991131;28;20050;-64
2023/02/22 02:25:37;;;;;;;1.20;1.10;;;;;;;;;;4991490;28;20054;-63
2023/02/22 02:28:29;;;;;;;0.65;0.52;;;;;;;;;;4990985;28;20208;-64
2023/02/22 02:31:06;;;;;;;1.02;0.93;;;;;;;;;;4977195;28;20058;-67
2023/02/22 02:33:41;;;;;;;1.13;1.02;;;;;;;;;;4994251;28;20057;-64
2023/02/22 02:36:15;;;;;;;2.80;1.10;;;;;;;;;;4994933;28;20050;-64
2023/02/22 02:38:46;;;;;;;0.65;0.60;;;;;;;;;;4994593;28;20602;-64
2023/02/22 02:41:16;;;;;;;0.80;0.60;;;;;;;;;;4994894;28;20064;-65
2023/02/22 02:43:48;;;;;;;2.17;1.30;;;;;;;;;;4995030;28;20046;-64
2023/02/22 02:46:18;;;;;;;1.38;0.70;;;;;;;;;;4995307;28;20057;-64
2023/02/22 02:48:53;;;;;;;0.68;0.68;;;;;;;;;;4994604;28;20046;-65
2023/02/22 02:51:23;;;;;;;1.38;1.00;;;;;;;;;;4994349;28;20101;-64
2023/02/22 02:53:51;;;;;;;0.50;0.50;;;;;;;;;;4994922;28;20054;-64
2023/02/22 02:56:22;;;;;;;0.80;0.80;;;;;;;;;;4994919;28;20410;-64
2023/02/22 02:58:51;;;;;;;1.10;0.98;;;;;;;;;;4994024;28;20050;-66
2023/02/22 03:01:23;;;;;;;2.78;0.98;;;;;;;;;;4995070;28;20464;-64
2023/02/22 03:03:56;;;;;;;5.13;1.10;;;;;;;;;;4994634;28;20062;-64
2023/02/22 03:06:40;;;;;;;2.17;1.27;;;;;;;;;;4993766;28;20526;-64
2023/02/22 03:09:12;;;;;;;2.60;0.75;;;;;;;;;;4972859;28;20058;-65
2023/02/22 03:11:47;;;;;;;2.72;0.90;;;;;;;;;;4977210;28;20418;-64
2023/02/22 03:14:18;;;;;;;1.70;1.52;;;;;;;;;;4994443;28;20061;-64
2023/02/22 03:16:49;;;;;;;1.00;1.00;;;;;;;;;;4994149;28;20064;-64
2023/02/22 03:19:21;;;;;;;1.35;1.05;;;;;;;;;;4994277;28;20503;-64
2023/02/22 03:21:56;;;;;;;1.50;1.17;;;;;;;;;;4993683;28;20058;-65
2023/02/22 03:24:28;;;;;;;4.30;0.88;;;;;;;;;;4994326;28;20058;-64
2023/02/22 03:27:01;;;;;;;1.67;1.45;;;;;;;;;;4993737;28;20054;-65
2023/02/22 03:29:35;;;;;;;0.50;0.50;;;;;;;;;;4994629;28;20056;-66
2023/02/22 03:32:05;;;;;;;1.17;0.63;;;;;;;;;;4994201;28;20061;-64
2023/02/22 03:34:36;;;;;;;0.75;0.68;;;;;;;;;;4994066;28;20056;-65
2023/02/22 03:37:08;;;;;;;0.82;0.63;;;;;;;;;;4992204;28;20054;-64
2023/02/22 03:39:37;;;;;;;4.43;0.95;;;;;;;;;;4994197;28;20061;-64
2023/02/22 03:42:09;;;;;;;2.90;1.08;;;;;;;;;;4994035;28;20054;-64
2023/02/22 03:44:39;;;;;;;1.02;0.30;;;;;;;;;;4993845;28;20069;-64
2023/02/22 03:47:09;;;;;;;2.67;1.42;;;;;;;;;;4993740;28;20150;-64
2023/02/22 03:49:41;;;;;;;2.92;1.45;;;;;;;;;;4993875;28;20050;-64
2023/02/22 03:52:11;;;;;;;0.30;0.30;;;;;;;;;;4991594;28;20057;-64
2023/02/22 03:54:40;;;;;;;2.50;0.50;;;;;;;;;;4987810;28;20415;-64
2023/02/22 03:57:11;;;;;;;0.38;0.32;;;;;;;;;;4992526;28;20396;-64
2023/02/22 03:59:39;;;;;;;0.47;0.45;;;;;;;;;;4982101;28;20058;-64
2023/02/22 04:02:08;;;;;;;1.48;0.50;;;;;;;;;;4993691;28;20511;-64
2023/02/22 04:04:36;;;;;;;0.40;0.40;;;;;;;;;;4993664;28;20053;-64
2023/02/22 04:07:06;;;;;;;0.38;0.38;;;;;;;;;;4992315;28;20057;-64
2023/02/22 04:09:34;;;;;;;1.35;0.88;;;;;;;;;;4993618;28;20075;-64
2023/02/22 04:12:03;;;;;;;0.75;0.60;;;;;;;;;;4979371;28;20129;-64
2023/02/22 04:14:31;;;;;;;2.60;1.05;;;;;;;;;;4993401;28;20487;-64
2023/02/22 04:16:59;;;;;;;0.45;0.45;;;;;;;;;;4992915;28;20050;-64
2023/02/22 04:19:27;;;;;;;1.40;0.85;;;;;;;;;;4993361;28;20050;-64
2023/02/22 04:21:55;;;;;;;0.43;0.40;;;;;;;;;;4992284;28;20057;-64
2023/02/22 04:24:25;;;;;;;0.88;0.88;;;;;;;;;;4991697;28;20046;-65
2023/02/22 04:26:55;;;;;;;0.25;0.25;;;;;;;;;;4992455;28;20046;-65
2023/02/22 04:29:23;;;;;;;0.95;0.95;;;;;;;;;;4993392;28;20438;-64
2023/02/22 04:31:51;;;;;;;0.98;0.63;;;;;;;;;;4980410;28;20058;-63
2023/02/22 04:34:19;;;;;;;0.50;0.50;;;;;;;;;;4993312;28;20073;-64
2023/02/22 04:36:48;;;;;;;0.57;0.52;;;;;;;;;;4991914;28;20042;-63
2023/02/22 04:39:16;;;;;;;2.40;0.77;;;;;;;;;;4992834;28;20088;-64
2023/02/22 04:41:46;;;;;;;0.40;0.25;;;;;;;;;;4992921;28;20076;-63
2023/02/22 04:44:14;;;;;;;0.52;0.47;;;;;;;;;;4992861;28;20058;-65
2023/02/22 04:46:42;;;;;;;2.15;0.55;;;;;;;;;;4992416;28;20078;-64
2023/02/22 04:49:11;;;;;;;0.40;0.40;;;;;;;;;;4992627;28;20057;-64
2023/02/22 04:51:40;;;;;;;0.77;0.77;;;;;;;;;;4992080;28;20491;-65
2023/02/22 04:54:08;;;;;;;0.68;0.68;;;;;;;;;;4992575;28;20062;-63
2023/02/22 04:56:36;;;;;;;2.17;1.15;;;;;;;;;;4991739;28;20061;-64
2023/02/22 04:59:06;;;;;;;0.52;0.38;;;;;;;;;;4992645;28;20065;-64
2023/02/22 05:01:35;;;;;;;1.33;1.05;;;;;;;;;;4992690;28;20051;-64
2023/02/22 05:04:03;;;;;;;0.55;0.55;;;;;;;;;;4992426;28;20050;-64
2023/02/22 05:06:31;;;;;;;0.50;0.50;;;;;;;;;;4992499;28;20058;-65
2023/02/22 05:09:00;;;;;;;1.25;1.15;;;;;;;;;;4990298;28;20054;-64
2023/02/22 05:11:28;;;;;;;0.90;0.90;;;;;;;;;;4980096;28;20089;-63
2023/02/22 05:13:56;;;;;;;0.65;0.55;;;;;;;;;;4991853;28;20050;-64
2023/02/22 05:16:26;;;;;;;3.75;0.70;;;;;;;;;;4992364;28;20051;-67
2023/02/22 05:18:54;;;;;;;2.83;1.02;;;;;;;;;;4990228;28;20050;-64
2023/02/22 05:21:23;;;;;;;0.75;0.75;;;;;;;;;;4986297;28;20522;-63
2023/02/22 05:23:51;;;;;;;1.10;1.00;;;;;;;;;;4991436;28;20068;-64
2023/02/22 05:26:19;;;;;;;1.13;1.00;;;;;;;;;;4992143;28;20043;-64
2023/02/22 05:28:48;;;;;;;1.40;0.88;;;;;;;;;;4991885;28;20088;-64
2023/02/22 05:31:16;;;;;;;1.02;0.95;;;;;;;;;;4991962;28;20050;-64
2023/02/22 05:33:47;;;;;;;1.25;1.05;;;;;;;;;;4992077;28;20082;-64
2023/02/22 05:36:16;;;;;;;0.63;0.63;;;;;;;;;;4992111;28;20097;-64
2023/02/22 05:38:44;;;;;;;0.60;0.60;;;;;;;;;;4991027;28;20057;-65
2023/02/22 05:41:13;;;;;;;1.35;1.15;;;;;;;;;;4991869;28;20050;-65
2023/02/22 05:43:42;;;;;;;3.25;0.82;;;;;;;;;;4991933;28;20054;-66
2023/02/22 05:46:10;;;;;;;0.73;0.73;;;;;;;;;;4992038;28;20076;-65
2023/02/22 05:48:38;;;;;;;2.60;0.77;;;;;;;;;;4991553;28;20101;-63
2023/02/22 05:51:09;;;;;;;0.88;0.85;;;;;;;;;;4991905;28;20408;-63
2023/02/22 05:53:37;;;;;;;0.50;0.50;;;;;;;;;;4991300;28;20138;-64
2023/02/22 05:56:06;;;;;;;1.17;1.10;;;;;;;;;;4991930;28;20061;-64
2023/02/22 05:58:34;;;;;;;0.85;0.85;;;;;;;;;;4990297;28;20046;-66
2023/02/22 06:01:03;;;;;;;1.02;1.02;;;;;;;;;;4991860;28;20054;-63
2023/02/22 06:03:31;;;;;;;0.77;0.52;;;;;;;;;;4991025;28;20054;-63
2023/02/22 06:05:59;;;;;;;0.45;0.45;;;;;;;;;;4990946;28;20042;-63
2023/02/22 06:08:29;;;;;;;2.25;1.50;;;;;;;;;;4991632;28;20066;-64
2023/02/22 06:10:57;;;;;;;0.85;0.85;;;;;;;;;;4986190;28;20401;-64
2023/02/22 06:13:25;;;;;;;1.70;1.40;;;;;;;;;;4989762;28;20046;-63
2023/02/22 06:15:54;;;;;;;2.00;0.85;;;;;;;;;;4993922;28;20046;-64
2023/02/22 06:18:25;;;;;;;0.57;0.57;;;;;;;;;;4993581;28;20125;-64
2023/02/22 06:20:53;;;;;;;1.02;0.80;;;;;;;;;;4994205;28;20082;-64
2023/02/22 06:23:22;;;;;;;1.48;1.23;;;;;;;;;;4993361;28;20062;-66
2023/02/22 06:25:51;;;;;;;2.95;1.30;;;;;;;;;;4994201;28;20053;-65
2023/02/22 06:28:20;;;;;;;1.10;0.77;;;;;;;;;;4992801;28;20539;-65
2023/02/22 06:30:48;;;;;;;2.17;1.55;;;;;;;;;;4994151;28;20137;-65
2023/02/22 06:33:16;;;;;;;1.38;1.20;;;;;;;;;;4993852;28;20046;-65
2023/02/22 06:35:45;;;;;;;1.60;0.77;;;;;;;;;;4994248;28;20086;-67
2023/02/22 06:38:21;;;;;;;1.35;1.23;;;;;;;;;;4992669;28;20085;-66
2023/02/22 06:40:49;;;;;;;0.70;0.70;;;;;;;;;;4993415;28;20411;-65
2023/02/22 06:43:19;;;;;;;0.32;0.32;;;;;;;;;;4992728;28;20070;-63
2023/02/22 06:45:47;;;;;;;0.98;0.95;;;;;;;;;;4993977;28;20097;-62
2023/02/22 06:48:15;;;;;;;0.50;0.50;;;;;;;;;;4993203;28;20046;-63
2023/02/22 06:50:44;;;;;;;1.33;1.23;;;;;;;;;;4993853;28;20055;-63
2023/02/22 06:53:12;;;;;;;0.93;0.88;;;;;;;;;;4993044;28;20064;-66
2023/02/22 06:55:40;;;;;;;0.40;0.40;;;;;;;;;;4993594;28;20085;-63
2023/02/22 06:58:09;;;;;;;2.00;0.88;;;;;;;;;;4985484;28;20043;-62
2023/02/22 07:00:38;;;;;;;1.00;0.63;;;;;;;;;;4990270;28;20076;-62
2023/02/22 07:03:07;;;;;;;1.23;0.70;;;;;;;;;;4950556;28;1267705;-62
2023/02/22 07:05:35;;;;;;;0.88;0.88;;;;;;;;;;4994788;28;20043;-67
2023/02/22 07:08:04;;;;;;;2.28;1.15;;;;;;;;;;4993305;28;20050;-64
2023/02/22 07:10:34;;;;;;;0.30;0.30;;;;;;;;;;4988802;28;20054;-63
2023/02/22 07:13:02;;;;;;;2.00;0.85;;;;;;;;;;4986940;28;20487;-62
2023/02/22 07:15:31;;;;;;;0.65;0.65;;;;;;;;;;4994592;28;20545;-62
2023/02/22 07:18:01;;;;;;;0.60;0.60;;;;;;;;;;4993789;28;20408;-62
2023/02/22 07:20:30;;;;;;;0.40;0.32;;;;;;;;;;4981947;28;20050;-64
2023/02/22 07:22:58;;;;;;;2.05;0.55;;;;;;;;;;4994182;28;20058;-63
2023/02/22 07:25:30;;;;;;;0.35;0.35;;;;;;;;;;4993284;28;20423;-63
2023/02/22 07:27:58;;;;;;;0.70;0.70;;;;;;;;;;4993542;28;20078;-64
2023/02/22 07:30:29;;;;;;;0.95;0.50;;;;;;;;;;4994287;28;20093;-65
2023/02/22 07:32:58;;;;;;;0.55;0.52;;;;;;;;;;4993976;28;20069;-65
2023/02/22 07:35:29;;;;;;;0.68;0.68;;;;;;;;;;4994320;28;20053;-65
2023/02/22 07:37:58;;;;;;;1.73;1.63;;;;;;;;;;4992143;28;20058;-65
2023/02/22 07:40:26;;;;;;;1.65;0.80;;;;;;;;;;4994057;28;20050;-64
2023/02/22 07:42:56;;;;;;;1.52;0.90;;;;;;;;;;4993800;28;20165;-66
2023/02/22 07:45:25;;;;;;;1.02;0.85;;;;;;;;;;4994199;28;20119;-65
2023/02/22 07:47:53;;;;;;;1.35;0.73;;;;;;;;;;4986996;28;20058;-65
2023/02/22 07:50:23;;;;;;;1.83;1.08;;;;;;;;;;4994051;28;20061;-68
2023/02/22 07:52:53;;;;;;;0.45;0.45;;;;;;;;;;4993708;28;20057;-66
2023/02/22 07:55:23;;;;;;;1.38;0.90;;;;;;;;;;4993450;28;20137;-65
2023/02/22 07:57:52;;;;;;;1.65;1.05;;;;;;;;;;4980444;28;20058;-64
2023/02/22 08:00:23;;;;;;;1.90;1.40;;;;;;;;;;4993886;28;20053;-64
2023/02/22 08:02:51;;;;;;;2.10;1.25;;;;;;;;;;4993482;28;20086;-65
2023/02/22 08:05:20;;;;;;;0.68;0.63;;;;;;;;;;4994051;28;20084;-64
2023/02/22 08:07:49;;;;;;;3.30;1.15;;;;;;;;;;4993021;28;20086;-64
2023/02/22 08:10:19;;;;;;;5.00;1.10;;;;;;;;;;4989017;28;20069;-64
2023/02/22 08:12:48;;;;;;;7.88;0.98;;;;;;;;;;4983744;28;20052;-64
2023/02/22 08:15:18;;;;;;;1.73;1.10;;;;;;;;;;4993376;28;20076;-64
2023/02/22 08:17:46;;;;;;;15.25;1.52;;;;;;;;;;4992617;28;20133;-64
2023/02/22 08:20:14;;;;;;;5.53;1.40;;;;;;;;;;4993263;28;20529;-64
2023/02/22 08:22:44;;;;;;;2.47;1.80;;;;;;;;;;4993240;28;20134;-65
2023/02/22 08:25:14;;;;;;;1.15;0.68;;;;;;;;;;4992563;28;20051;-64
2023/02/22 08:27:44;;;;;;;2.28;0.70;;;;;;;;;;4992703;28;20419;-64
2023/02/22 08:30:14;;;;;;;2.83;0.68;;;;;;;;;;4991121;28;20053;-64
2023/02/22 08:32:42;;;;;;;2.22;0.77;;;;;;;;;;4992973;28;20397;-64
2023/02/22 08:35:12;;;;;;;2.90;1.10;;;;;;;;;;4993119;28;20052;-64
2023/02/22 08:37:42;;;;;;;0.88;0.50;;;;;;;;;;4992510;28;20058;-64
2023/02/22 08:40:11;;;;;;;1.33;0.55;;;;;;;;;;4992352;28;20491;-65
2023/02/22 08:42:43;;;;;;;0.20;0.20;;;;;;;;;;4992823;28;20105;-65
2023/02/22 08:45:13;;;;;;;0.98;0.65;;;;;;;;;;4993144;28;20050;-65
2023/02/22 08:47:41;;;;;;;0.63;0.55;;;;;;;;;;4991981;28;20100;-65
2023/02/22 08:50:11;;;;;;;1.65;0.82;;;;;;;;;;4992994;28;20047;-66
2023/02/22 08:52:39;;;;;;;0.30;0.30;;;;;;;;;;4992583;28;20054;-66
2023/02/22 08:55:07;;;;;;;1.48;0.50;;;;;;;;;;4989854;28;20206;-66
2023/02/22 08:57:36;;;;;;;0.60;0.60;;;;;;;;;;4991119;28;20050;-65
2023/02/22 09:00:06;;;;;;;0.90;0.73;;;;;;;;;;4992577;28;20085;-66
2023/02/22 09:02:34;;;;;;;1.17;0.85;;;;;;;;;;4992089;28;20086;-66
2023/02/22 09:05:04;;;;;;;1.60;0.63;;;;;;;;;;4992565;28;20086;-66
2023/02/22 09:07:32;;;;;;;2.28;0.82;;;;;;;;;;4991876;28;20410;-66
2023/02/22 09:10:01;;;;;;;1.92;0.93;;;;;;;;;;4988049;28;20034;-65
2023/02/22 09:12:30;;;;;;;0.85;0.70;;;;;;;;;;4980253;28;20134;-65
2023/02/22 09:14:58;;;;;;;0.65;0.38;;;;;;;;;;4991962;28;20522;-66
2023/02/22 09:17:29;;;;;;;1.02;0.65;;;;;;;;;;4991480;28;20133;-65
2023/02/22 09:19:57;;;;;;;1.00;0.40;;;;;;;;;;4991947;28;20050;-66
2023/02/22 09:22:25;;;;;;;0.57;0.50;;;;;;;;;;4992025;28;20129;-65
2023/02/22 09:24:54;;;;;;;0.95;0.73;;;;;;;;;;4990817;28;20497;-65
2023/02/22 09:27:27;;;;;;;2.70;0.95;;;;;;;;;;4991490;28;20054;-67
2023/02/22 09:29:56;;;;;;;0.40;0.40;;;;;;;;;;4991842;28;20050;-66
2023/02/22 09:32:26;;;;;;;1.05;0.50;;;;;;;;;;4991938;28;20050;-67
2023/02/22 09:34:56;;;;;;;0.65;0.40;;;;;;;;;;4991712;28;20054;-66
2023/02/22 09:37:25;;;;;;;3.97;0.82;;;;;;;;;;4990456;28;20108;-68
2023/02/22 09:39:53;;;;;;;2.05;0.60;;;;;;;;;;4990997;28;20130;-66
2023/02/22 09:42:26;;;;;;;1.27;0.55;;;;;;;;;;4991558;28;20062;-66
2023/02/22 09:44:59;;;;;;;0.40;0.40;;;;;;;;;;4991851;28;20054;-67
2023/02/22 09:47:34;;;;;;;4.03;0.65;;;;;;;;;;4991233;28;20137;-66
2023/02/22 09:50:14;;;;;;;0.45;0.45;;;;;;;;;;4991816;28;20050;-67
2023/02/22 09:52:48;;;;;;;0.65;0.43;;;;;;;;;;4991909;28;20097;-67
2023/02/22 09:55:24;;;;;;;5.93;0.88;;;;;;;;;;4991260;28;20483;-67
2023/02/22 09:57:54;;;;;;;0.63;0.50;;;;;;;;;;4985972;28;20069;-67
2023/02/22 10:00:28;;;;;;;2.03;0.85;;;;;;;;;;4985585;28;20051;-68
2023/02/22 10:03:01;;;;;;;3.42;0.85;;;;;;;;;;4991854;28;20129;-67
2023/02/22 10:05:33;;;;;;;0.55;0.52;;;;;;;;;;4991797;28;20057;-68
2023/02/22 10:08:04;;;;;;;2.53;0.68;;;;;;;;;;4990490;28;20046;-68
2023/02/22 10:10:34;;;;;;;0.88;0.40;;;;;;;;;;4985497;28;20057;-65
2023/02/22 10:13:06;;;;;;;0.30;0.30;;;;;;;;;;4984107;28;20141;-65
2023/02/22 10:15:46;;;;;;;0.65;0.28;;;;;;;;;;4991512;28;20050;-64
2023/02/22 10:18:27;;;;;;;0.55;0.30;;;;;;;;;;4990751;28;20517;-65
2023/02/22 10:20:58;;;;;;;0.63;0.47;;;;;;;;;;4991697;28;20499;-65
2023/02/22 10:23:31;;;;;;;0.57;0.40;;;;;;;;;;4991269;28;20530;-65
2023/02/22 10:26:05;;;;;;;0.93;0.77;;;;;;;;;;4991159;28;20057;-65
2023/02/22 10:28:37;;;;;;;1.63;0.73;;;;;;;;;;4990902;28;20070;-65
2023/02/22 10:31:07;;;;;;;0.38;0.38;;;;;;;;;;4991518;28;20069;-66
2023/02/22 10:33:39;;;;;;;0.65;0.50;;;;;;;;;;4991455;28;20376;-65
2023/02/22 10:36:15;;;;;;;1.55;0.40;;;;;;;;;;4991501;28;20120;-65
2023/02/22 10:38:48;;;;;;;1.65;0.70;;;;;;;;;;4989842;28;20100;-67
2023/02/22 10:41:22;;;;;;;0.63;0.40;;;;;;;;;;4990685;28;20046;-65
2023/02/22 10:43:50;;;;;;;0.73;0.65;;;;;;;;;;4991342;28;20090;-66
2023/02/22 10:46:21;;;;;;;1.02;0.45;;;;;;;;;;4990531;28;20480;-65
2023/02/22 10:48:52;;;;;;;0.30;0.30;;;;;;;;;;4990694;28;20054;-65
2023/02/22 10:51:21;;;;;;;2.45;1.08;;;;;;;;;;4991682;28;20068;-65
2023/02/22 10:53:56;;;;;;;5.30;0.90;;;;;;;;;;4992801;28;20046;-65
2023/02/22 10:56:24;;;;;;;;;;;;;;;;;;4994926;28;20057;-65
2023/02/22 10:58:56;;;;;;;0.45;0.40;;;;;;;;;;4993985;28;19928;-65
2023/02/22 11:01:26;;;;;;;1.67;0.85;;;;;;;;;;4995010;28;20065;-65
2023/02/22 11:03:59;;;;;;;0.50;0.50;;;;;;;;;;4994329;28;20089;-66
2023/02/22 11:06:29;;;;;;;0.70;0.70;;;;;;;;;;4994875;28;20089;-65
2023/02/22 11:09:10;;;;;;;1.45;0.30;;;;;;;;;;4992844;28;20554;-65
2023/02/22 11:11:39;;;;;;;1.60;0.60;;;;;;;;;;4981841;28;20126;-65
2023/02/22 11:14:09;;;;;;;0.40;0.30;;;;;;;;;;4994351;28;20057;-65
2023/02/22 11:16:38;;;;;;;0.80;0.63;;;;;;;;;;4993440;28;20826;-65
2023/02/22 11:19:12;;;;;;;0.68;0.28;;;;;;;;;;4993529;28;20050;-65
2023/02/22 11:21:42;;;;;;;0.85;0.43;;;;;;;;;;4994678;28;20069;-66
2023/02/22 11:24:11;;;;;;;0.35;0.30;;;;;;;;;;4993777;28;20495;-66
2023/02/22 11:26:42;;;;;;;1.48;0.60;;;;;;;;;;4993960;28;20056;-65
2023/02/22 11:29:12;;;;;;;0.40;0.40;;;;;;;;;;4994344;28;20133;-66
2023/02/22 11:31:44;;;;;;;0.88;0.47;;;;;;;;;;4994350;28;20081;-66
2023/02/22 11:34:28;;;;;;;1.25;0.65;;;;;;;;;;4994763;28;20058;-65
2023/02/22 11:36:58;;;;;;;0.47;0.47;;;;;;;;;;4993703;28;20052;-67
2023/02/22 11:39:27;;;;;;;1.50;0.63;;;;;;;;;;4993232;28;20047;-66
2023/02/22 11:41:56;;;;;;;1.75;0.70;;;;;;;;;;4994036;28;20519;-66
2023/02/22 11:44:26;;;;;;;0.90;0.38;;;;;;;;;;4994053;28;20072;-66
2023/02/22 11:46:55;;;;;;;0.17;0.17;;;;;;;;;;4993633;28;20117;-66
2023/02/22 11:49:24;;;;;;;0.30;0.30;;;;;;;;;;4993824;28;20054;-67
2023/02/22 11:51:59;;;;;;;8.50;0.50;;;;;;;;;;4993883;28;20602;-66
2023/02/22 11:54:39;;;;;;;0.20;0.20;;;;;;;;;;4993406;28;20081;-67
2023/02/22 11:57:16;;;;;;;0.47;0.40;;;;;;;;;;4993302;28;20053;-67
2023/02/22 11:59:47;;;;;;;0.75;0.20;;;;;;;;;;4993741;28;20052;-67
2023/02/22 12:02:24;;;;;;;0.20;0.20;;;;;;;;;;4993564;28;20061;-68
2023/02/22 12:05:00;;;;;;;0.40;0.20;;;;;;;;;;4992596;28;20056;-67
2023/02/22 12:07:36;;;;;;;0.50;0.30;;;;;;;;;;4992945;28;20060;-67
2023/02/22 12:10:12;;;;;;;0.40;0.30;;;;;;;;;;4990906;28;20134;-67
2023/02/22 12:12:47;;;;;;;1.27;0.30;;;;;;;;;;4983253;28;20058;-67
2023/02/22 12:15:19;;;;;;;0.25;0.25;;;;;;;;;;4993743;28;20062;-66
2023/02/22 12:17:52;;;;;;;0.82;0.30;;;;;;;;;;4992719;28;20506;-67
2023/02/22 12:20:31;;;;;;;0.98;0.30;;;;;;;;;;4993268;28;20046;-67
2023/02/22 12:23:11;;;;;;;0.20;0.20;;;;;;;;;;4993184;28;20054;-67
2023/02/22 12:25:44;;;;;;;0.10;0.10;;;;;;;;;;4992892;28;20074;-67
2023/02/22 12:28:19;;;;;;;2.45;0.55;;;;;;;;;;4992672;28;20079;-67
2023/02/22 12:30:54;;;;;;;1.75;0.60;;;;;;;;;;4993286;28;20058;-67
2023/02/22 12:33:26;;;;;;;0.85;0.30;;;;;;;;;;4992976;28;20507;-67
2023/02/22 12:35:56;;;;;;;0.77;0.45;;;;;;;;;;4993061;28;20087;-67
2023/02/22 12:38:29;;;;;;;1.10;0.82;;;;;;;;;;4992430;28;20065;-67
2023/02/22 12:41:04;;;;;;;1.33;0.55;;;;;;;;;;4991771;28;20422;-67
2023/02/22 12:43:34;;;;;;;1.38;0.40;;;;;;;;;;4992919;28;20487;-67
2023/02/22 12:46:05;;;;;;;1.05;0.40;;;;;;;;;;4992833;28;20046;-67
2023/02/22 12:48:39;;;;;;;0.30;0.30;;;;;;;;;;4992348;28;20050;-67
2023/02/22 12:51:15;;;;;;;0.50;0.40;;;;;;;;;;4992688;28;20093;-68
2023/02/22 12:53:51;;;;;;;0.65;0.30;;;;;;;;;;4992518;28;20113;-67
2023/02/22 12:56:24;;;;;;;0.50;0.40;;;;;;;;;;4992016;28;20050;-67
2023/02/22 12:58:57;;;;;;;0.30;0.25;;;;;;;;;;4981206;28;20512;-67
2023/02/22 13:01:28;;;;;;;0.20;0.20;;;;;;;;;;4992540;28;20081;-67
2023/02/22 13:03:57;;;;;;;0.95;0.65;;;;;;;;;;4992591;28;20066;-68
2023/02/22 13:06:47;;;;;;;0.95;0.40;;;;;;;;;;4991229;28;20204;-67
2023/02/22 13:09:26;;;;;;;1.20;0.40;;;;;;;;;;4980146;28;20046;-67
2023/02/22 13:11:59;;;;;;;0.40;0.40;;;;;;;;;;4980067;28;20047;-69
2023/02/22 13:14:34;;;;;;;5.03;0.32;;;;;;;;;;4973674;28;20411;-69
2023/02/22 13:17:06;;;;;;;1.15;0.20;;;;;;;;;;4980883;28;20047;-70
2023/02/22 13:19:39;;;;;;;0.30;0.30;;;;;;;;;;4985055;28;20114;-68
2023/02/22 13:22:10;;;;;;;4.40;0.47;;;;;;;;;;4980866;28;20054;-68
2023/02/22 13:24:53;;;;;;;1.48;0.30;;;;;;;;;;4987999;28;20050;-68
2023/02/22 13:27:26;;;;;;;0.30;0.22;;;;;;;;;;4987862;28;20054;-68
2023/02/22 13:29:58;;;;;;;0.10;0.10;;;;;;;;;;4986166;28;20050;-69
2023/02/22 13:32:34;;;;;;;0.52;0.30;;;;;;;;;;4990114;28;20122;-66
2023/02/22 13:35:15;;;;;;;0.50;0.40;;;;;;;;;;4988433;28;20412;-67
2023/02/22 13:37:58;;;;;;;0.63;0.40;;;;;;;;;;4990836;28;20061;-67
2023/02/22 13:40:53;;;;;;;0.45;0.40;;;;;;;;;;4981245;28;20054;-68
2023/02/22 13:43:29;;;;;;;5.53;0.52;;;;;;;;;;4950197;28;20124;-69
2023/02/22 13:46:16;;;;;;;0.20;0.20;;;;;;;;;;4983572;28;20050;-70
2023/02/22 13:49:00;;;;;;;0.70;0.65;;;;;;;;;;4978037;28;20054;-69
2023/02/22 13:51:46;;;;;;;0.17;0.10;;;;;;;;;;4982095;28;20085;-70
2023/02/22 13:54:18;;;;;;;1.25;0.50;;;;;;;;;;4979758;28;20057;-70
2023/02/22 13:56:47;;;;;;;0.20;0.20;;;;;;;;;;4981261;28;20070;-71
2023/02/22 13:59:25;;;;;;;0.30;0.30;;;;;;;;;;4979551;28;20050;-71
2023/02/22 14:01:54;;;;;;;0.20;0.20;;;;;;;;;;4985874;28;20506;-71
2023/02/22 14:04:33;;;;;;;1.20;0.20;;;;;;;;;;4989058;28;20126;-68
2023/02/22 14:07:02;;;;;;;0.17;0.17;;;;;;;;;;4988034;28;20074;-69
2023/02/22 14:09:44;;;;;;;0.25;0.25;;;;;;;;;;4982814;28;20525;-68
2023/02/22 14:12:27;;;;;;;0.30;0.20;;;;;;;;;;4985967;28;20054;-69
2023/02/22 14:15:17;;;;;;;0.20;0.20;;;;;;;;;;4986096;28;20137;-69
2023/02/22 14:17:59;;;;;;;0.13;0.10;;;;;;;;;;4981901;28;20145;-68
2023/02/22 14:20:33;;;;;;;0.40;0.30;;;;;;;;;;4976953;28;20662;-69
2023/02/22 14:23:32;;;;;;;0.20;0.20;;;;;;;;;;4985826;28;20072;-70
2023/02/22 14:26:10;;;;;;;0.20;0.20;;;;;;;;;;4919514;29;20052;-70
2023/02/22 14:28:41;;;;;;;1.85;0.30;;;;;;;;;;4973630;28;20050;-70
2023/02/22 14:31:12;;;;;;;0.35;0.20;;;;;;;;;;4985379;28;20581;-71
2023/02/22 14:34:05;;;;;;;3.08;0.20;;;;;;;;;;4988038;28;20051;-71
2023/02/22 14:36:37;;;;;;;0.52;0.38;;;;;;;;;;4990325;28;20125;-70
2023/02/22 14:39:14;;;;;;;1.05;0.40;;;;;;;;;;4983216;28;20046;-71
2023/02/22 14:41:46;;;;;;;0.10;0.10;;;;;;;;;;4983793;28;20421;-71
2023/02/22 14:44:15;;;;;;;0.45;0.30;;;;;;;;;;4990775;28;20152;-70
2023/02/22 14:46:48;;;;;;;0.30;0.20;;;;;;;;;;4989333;28;20141;-70
2023/02/22 14:49:20;;;;;;;0.20;0.17;;;;;;;;;;4992138;28;20537;-71
2023/02/22 14:51:55;;;;;;;0.20;0.20;;;;;;;;;;4987573;28;20046;-71
2023/02/22 14:54:29;;;;;;;0.40;0.30;;;;;;;;;;4992307;28;20057;-71
2023/02/22 14:57:11;;;;;;;0.33;0.30;;;;;;;;;;4982108;28;20056;-70
2023/02/22 14:59:48;;;;;;;0.45;0.10;;;;;;;;;;4989396;28;21229;-71
2023/02/22 15:02:21;;;;;;;0.25;0.25;;;;;;;;;;4983592;28;20072;-69
2023/02/22 15:04:53;;;;;;;0.20;0.20;;;;;;;;;;4990263;28;20380;-71
2023/02/22 15:07:26;;;;;;;0.30;0.30;;;;;;;;;;4990349;28;20618;-72